sensor_id;sensor_type;location;lat;lon;timestamp;pressure;altitude;pressure_sealevel;temperature;humidity
9750;BME280;4914;43.218;27.908;2023-02-04T00:01:46;100750.09;;;2.76;100.00
9750;BME280;4914;43.218;27.908;2023-02-04T00:04:13;100748.56;;;2.71;100.00
9750;BME280;4914;43.218;27.908;2023-02-04T00:06:41;100732.44;;;2.59;100.00
9750;BME280;4914;43.218;27.908;2023-02-04T00:09:08;100736.09;;;2.55;100.00
9750;BME280;4914;43.218;27.908;2023-02-04T00:11:35;100740.59;;;2.53;100.00
9750;BME280;4914;43.218;27.908;2023-02-04T00:14:02;100729.97;;;2.56;100.00
9750;BME280;4914;43.218;27.908;2023-02-04T00:16:28;100723.28;;;2.49;100.00
9750;BME280;4914;43.218;27.908;2023-02-04T00:18:55;100718.06;;;2.49;100.00
9750;BME280;4914;43.218;27.908;2023-02-04T00:21:22;100725.34;;;2.41;100.00
9750;BME280;4914;43.218;27.908;2023-02-04T00:23:50;100713.06;;;2.43;100.00
9750;BME280;4914;43.218;27.908;2023-02-04T00:26:17;100718.31;;;2.43;100.00
9750;BME280;4914;43.218;27.908;2023-02-04T00:28:44;100714.63;;;2.47;100.00
9750;BME280;4914;43.218;27.908;2023-02-04T00:31:11;100707.56;;;2.49;100.00
9750;BME280;4914;43.218;27.908;2023-02-04T00:33:38;100696.94;;;2.52;100.00
9750;BME280;4914;43.218;27.908;2023-02-04T00:36:07;100702.19;;;2.52;100.00
9750;BME280;4914;43.218;27.908;2023-02-04T00:38:34;100704.59;;;2.57;100.00
9750;BME280;4914;43.218;27.908;2023-02-04T00:41:02;100696.94;;;2.52;100.00
9750;BME280;4914;43.218;27.908;2023-02-04T00:43:30;100701.13;;;2.56;100.00
9750;BME280;4914;43.218;27.908;2023-02-04T00:45:57;100693.97;;;2.60;100.00
9750;BME280;4914;43.218;27.908;2023-02-04T00:48:24;100691.44;;;2.58;100.00
9750;BME280;4914;43.218;27.908;2023-02-04T00:50:51;100686.06;;;2.61;100.00
9750;BME280;4914;43.218;27.908;2023-02-04T00:53:18;100694.56;;;2.67;100.00
9750;BME280;4914;43.218;27.908;2023-02-04T00:55:45;100686.31;;;2.76;100.00
9750;BME280;4914;43.218;27.908;2023-02-04T00:58:13;100677.19;;;2.84;100.00
9750;BME280;4914;43.218;27.908;2023-02-04T01:00:40;100675.81;;;2.96;100.00
9750;BME280;4914;43.218;27.908;2023-02-04T01:03:07;100671.00;;;3.05;100.00
9750;BME280;4914;43.218;27.908;2023-02-04T01:05:34;100662.00;;;3.11;100.00
9750;BME280;4914;43.218;27.908;2023-02-04T01:08:00;100663.56;;;3.15;100.00
9750;BME280;4914;43.218;27.908;2023-02-04T01:10:27;100666.88;;;3.19;100.00
9750;BME280;4914;43.218;27.908;2023-02-04T01:12:54;100655.41;;;3.21;100.00
9750;BME280;4914;43.218;27.908;2023-02-04T01:15:22;100662.91;;;3.29;100.00
9750;BME280;4914;43.218;27.908;2023-02-04T01:17:49;100659.38;;;3.30;100.00
9750;BME280;4914;43.218;27.908;2023-02-04T01:20:16;100649.53;;;3.35;100.00
9750;BME280;4914;43.218;27.908;2023-02-04T01:22:43;100645.59;;;3.43;100.00
9750;BME280;4914;43.218;27.908;2023-02-04T01:25:10;100650.00;;;3.43;100.00
9750;BME280;4914;43.218;27.908;2023-02-04T01:27:37;100640.94;;;3.50;100.00
9750;BME280;4914;43.218;27.908;2023-02-04T01:30:04;100637.75;;;3.61;100.00
9750;BME280;4914;43.218;27.908;2023-02-04T01:32:33;100632.44;;;3.62;100.00
9750;BME280;4914;43.218;27.908;2023-02-04T01:35:00;100636.56;;;3.68;100.00
9750;BME280;4914;43.218;27.908;2023-02-04T01:37:27;100618.31;;;3.65;100.00
9750;BME280;4914;43.218;27.908;2023-02-04T01:39:53;100618.72;;;3.74;100.00
9750;BME280;4914;43.218;27.908;2023-02-04T01:42:20;100621.16;;;3.79;100.00
9750;BME280;4914;43.218;27.908;2023-02-04T01:44:48;100619.44;;;3.78;100.00
9750;BME280;4914;43.218;27.908;2023-02-04T01:47:15;100607.06;;;3.80;100.00
9750;BME280;4914;43.218;27.908;2023-02-04T01:49:44;100607.91;;;3.80;100.00
9750;BME280;4914;43.218;27.908;2023-02-04T01:52:11;100602.66;;;3.80;100.00
9750;BME280;4914;43.218;27.908;2023-02-04T01:54:38;100599.97;;;3.82;100.00
9750;BME280;4914;43.218;27.908;2023-02-04T01:57:08;100603.34;;;3.84;100.00
9750;BME280;4914;43.218;27.908;2023-02-04T01:59:39;100597.97;;;3.87;100.00
9750;BME280;4914;43.218;27.908;2023-02-04T02:02:37;100600.13;;;3.79;100.00
9750;BME280;4914;43.218;27.908;2023-02-04T02:05:06;100595.56;;;3.82;100.00
9750;BME280;4914;43.218;27.908;2023-02-04T02:07:33;100592.03;;;3.83;100.00
9750;BME280;4914;43.218;27.908;2023-02-04T02:10:01;100589.16;;;3.88;100.00
9750;BME280;4914;43.218;27.908;2023-02-04T02:12:28;100594.56;;;3.85;100.00
9750;BME280;4914;43.218;27.908;2023-02-04T02:14:55;100583.59;;;3.94;100.00
9750;BME280;4914;43.218;27.908;2023-02-04T02:17:22;100577.47;;;3.93;100.00
9750;BME280;4914;43.218;27.908;2023-02-04T02:19:49;100586.84;;;3.99;100.00
9750;BME280;4914;43.218;27.908;2023-02-04T02:22:22;100578.88;;;4.01;100.00
9750;BME280;4914;43.218;27.908;2023-02-04T02:24:53;100575.09;;;4.06;100.00
9750;BME280;4914;43.218;27.908;2023-02-04T02:27:20;100570.78;;;4.05;100.00
9750;BME280;4914;43.218;27.908;2023-02-04T02:29:47;100571.16;;;3.98;100.00
9750;BME280;4914;43.218;27.908;2023-02-04T02:32:15;100567.59;;;4.16;100.00
9750;BME280;4914;43.218;27.908;2023-02-04T02:34:43;100558.25;;;4.10;100.00
9750;BME280;4914;43.218;27.908;2023-02-04T02:37:11;100572.53;;;4.05;100.00
9750;BME280;4914;43.218;27.908;2023-02-04T02:39:39;100558.06;;;4.30;100.00
9750;BME280;4914;43.218;27.908;2023-02-04T02:42:12;100566.53;;;4.03;100.00
9750;BME280;4914;43.218;27.908;2023-02-04T02:44:41;100557.19;;;3.97;100.00
9750;BME280;4914;43.218;27.908;2023-02-04T02:47:12;100547.38;;;4.01;100.00
9750;BME280;4914;43.218;27.908;2023-02-04T02:49:40;100548.69;;;3.92;100.00
9750;BME280;4914;43.218;27.908;2023-02-04T02:52:10;100541.91;;;3.88;100.00
9750;BME280;4914;43.218;27.908;2023-02-04T02:54:38;100532.44;;;3.84;100.00
9750;BME280;4914;43.218;27.908;2023-02-04T02:57:13;100532.53;;;3.82;100.00
9750;BME280;4914;43.218;27.908;2023-02-04T02:59:40;100525.75;;;3.78;100.00
9750;BME280;4914;43.218;27.908;2023-02-04T03:02:08;100518.88;;;3.76;100.00
9750;BME280;4914;43.218;27.908;2023-02-04T03:04:38;100518.94;;;3.74;100.00
9750;BME280;4914;43.218;27.908;2023-02-04T03:07:07;100486.97;;;3.66;100.00
9750;BME280;4914;43.218;27.908;2023-02-04T03:09:35;100499.41;;;3.80;100.00
9750;BME280;4914;43.218;27.908;2023-02-04T03:12:03;100502.88;;;3.80;100.00
9750;BME280;4914;43.218;27.908;2023-02-04T03:14:32;100496.47;;;3.86;100.00
9750;BME280;4914;43.218;27.908;2023-02-04T03:17:01;100489.38;;;3.88;100.00
9750;BME280;4914;43.218;27.908;2023-02-04T03:19:30;100496.91;;;3.94;100.00
9750;BME280;4914;43.218;27.908;2023-02-04T03:21:57;100479.00;;;4.02;100.00
9750;BME280;4914;43.218;27.908;2023-02-04T03:24:25;100516.94;;;4.29;100.00
9750;BME280;4914;43.218;27.908;2023-02-04T03:26:52;100491.69;;;4.43;100.00
9750;BME280;4914;43.218;27.908;2023-02-04T03:29:19;100490.69;;;4.61;100.00
9750;BME280;4914;43.218;27.908;2023-02-04T03:31:47;100500.88;;;4.67;100.00
9750;BME280;4914;43.218;27.908;2023-02-04T03:34:14;100499.53;;;4.60;100.00
9750;BME280;4914;43.218;27.908;2023-02-04T03:36:41;100499.91;;;4.69;100.00
9750;BME280;4914;43.218;27.908;2023-02-04T03:39:08;100491.91;;;4.71;100.00
9750;BME280;4914;43.218;27.908;2023-02-04T03:41:35;100497.66;;;4.62;100.00
9750;BME280;4914;43.218;27.908;2023-02-04T03:44:02;100490.88;;;4.58;100.00
9750;BME280;4914;43.218;27.908;2023-02-04T03:46:29;100482.38;;;4.53;100.00
9750;BME280;4914;43.218;27.908;2023-02-04T03:48:57;100470.09;;;4.53;100.00
9750;BME280;4914;43.218;27.908;2023-02-04T03:51:24;100480.19;;;4.61;100.00
9750;BME280;4914;43.218;27.908;2023-02-04T03:53:51;100484.59;;;4.45;100.00
9750;BME280;4914;43.218;27.908;2023-02-04T03:56:18;100472.59;;;4.23;100.00
9750;BME280;4914;43.218;27.908;2023-02-04T03:58:45;100468.72;;;4.30;100.00
9750;BME280;4914;43.218;27.908;2023-02-04T04:01:11;100468.13;;;4.25;100.00
9750;BME280;4914;43.218;27.908;2023-02-04T04:03:38;100466.69;;;4.35;100.00
9750;BME280;4914;43.218;27.908;2023-02-04T04:06:07;100448.13;;;4.38;100.00
9750;BME280;4914;43.218;27.908;2023-02-04T04:08:35;100449.31;;;4.49;100.00
9750;BME280;4914;43.218;27.908;2023-02-04T04:11:02;100436.34;;;4.30;100.00
9750;BME280;4914;43.218;27.908;2023-02-04T04:13:29;100438.28;;;4.26;100.00
9750;BME280;4914;43.218;27.908;2023-02-04T04:15:55;100434.81;;;3.93;100.00
9750;BME280;4914;43.218;27.908;2023-02-04T04:18:22;100424.78;;;3.84;100.00
9750;BME280;4914;43.218;27.908;2023-02-04T04:20:49;100408.81;;;3.71;100.00
9750;BME280;4914;43.218;27.908;2023-02-04T04:23:17;100410.91;;;3.65;100.00
9750;BME280;4914;43.218;27.908;2023-02-04T04:25:44;100401.38;;;3.64;100.00
9750;BME280;4914;43.218;27.908;2023-02-04T04:28:11;100401.97;;;3.69;100.00
9750;BME280;4914;43.218;27.908;2023-02-04T04:30:38;100397.78;;;3.65;100.00
9750;BME280;4914;43.218;27.908;2023-02-04T04:33:05;100393.31;;;3.67;100.00
9750;BME280;4914;43.218;27.908;2023-02-04T04:35:32;100385.44;;;3.67;100.00
9750;BME280;4914;43.218;27.908;2023-02-04T04:37:59;100377.19;;;3.57;100.00
9750;BME280;4914;43.218;27.908;2023-02-04T04:40:27;100383.06;;;3.62;100.00
9750;BME280;4914;43.218;27.908;2023-02-04T04:42:54;100376.09;;;3.61;100.00
9750;BME280;4914;43.218;27.908;2023-02-04T04:45:21;100368.34;;;3.60;100.00
9750;BME280;4914;43.218;27.908;2023-02-04T04:47:48;100372.38;;;3.65;100.00
9750;BME280;4914;43.218;27.908;2023-02-04T04:50:15;100374.25;;;3.63;100.00
9750;BME280;4914;43.218;27.908;2023-02-04T04:52:42;100373.47;;;3.61;100.00
9750;BME280;4914;43.218;27.908;2023-02-04T04:55:09;100370.97;;;3.60;100.00
9750;BME280;4914;43.218;27.908;2023-02-04T04:57:38;100368.16;;;3.63;100.00
9750;BME280;4914;43.218;27.908;2023-02-04T05:00:06;100377.63;;;3.65;100.00
9750;BME280;4914;43.218;27.908;2023-02-04T05:02:33;100365.97;;;3.71;100.00
9750;BME280;4914;43.218;27.908;2023-02-04T05:05:00;100369.50;;;3.70;100.00
9750;BME280;4914;43.218;27.908;2023-02-04T05:07:27;100358.69;;;3.76;100.00
9750;BME280;4914;43.218;27.908;2023-02-04T05:09:54;100361.19;;;3.79;100.00
9750;BME280;4914;43.218;27.908;2023-02-04T05:12:21;100360.75;;;3.86;100.00
9750;BME280;4914;43.218;27.908;2023-02-04T05:14:49;100352.31;;;3.97;100.00
9750;BME280;4914;43.218;27.908;2023-02-04T05:17:15;100350.78;;;3.93;100.00
9750;BME280;4914;43.218;27.908;2023-02-04T05:19:42;100353.31;;;3.94;100.00
9750;BME280;4914;43.218;27.908;2023-02-04T05:22:09;100350.19;;;3.88;100.00
9750;BME280;4914;43.218;27.908;2023-02-04T05:24:36;100353.56;;;3.90;100.00
9750;BME280;4914;43.218;27.908;2023-02-04T05:27:03;100347.38;;;3.91;100.00
9750;BME280;4914;43.218;27.908;2023-02-04T05:29:30;100343.06;;;3.90;100.00
9750;BME280;4914;43.218;27.908;2023-02-04T05:31:58;100346.88;;;4.00;100.00
9750;BME280;4914;43.218;27.908;2023-02-04T05:34:25;100348.41;;;4.04;100.00
9750;BME280;4914;43.218;27.908;2023-02-04T05:36:52;100341.56;;;4.02;100.00
9750;BME280;4914;43.218;27.908;2023-02-04T05:39:19;100343.81;;;4.08;100.00
9750;BME280;4914;43.218;27.908;2023-02-04T05:41:45;100345.28;;;3.98;100.00
9750;BME280;4914;43.218;27.908;2023-02-04T05:44:12;100342.03;;;4.08;100.00
9750;BME280;4914;43.218;27.908;2023-02-04T05:46:39;100331.81;;;4.19;100.00
